createdAt,value
2022-08-19T00:04:43.712Z,26.23
2022-08-19T00:09:46.869Z,26.33
2022-08-19T00:14:55.299Z,24.74
2022-08-19T00:19:58.511Z,25.20
2022-08-19T00:25:02.297Z,26.17
2022-08-19T00:30:07.789Z,24.65
2022-08-19T00:35:11.011Z,25.60
2022-08-19T00:40:14.469Z,25.85
2022-08-19T00:45:21.329Z,24.26
2022-08-19T00:50:24.899Z,24.58
2022-08-19T00:55:29.968Z,25.47
2022-08-19T01:00:36.402Z,25.78
2022-08-19T01:05:42.364Z,24.82
2022-08-19T01:10:49.882Z,24.16
2022-08-19T01:16:06.495Z,25.02
2022-08-19T01:21:17.395Z,25.28
2022-08-19T01:26:23.781Z,25.29
2022-08-19T01:31:33.243Z,25.16
2022-08-19T01:36:43.007Z,24.90
2022-08-19T01:41:46.641Z,24.90
2022-08-19T01:46:49.730Z,25.06
2022-08-19T01:51:53.249Z,24.94
2022-08-19T01:57:04.578Z,24.84
2022-08-19T02:02:09.616Z,24.88
2022-08-19T02:07:12.816Z,24.96
2022-08-19T02:12:15.925Z,24.86
2022-08-19T02:17:19.545Z,25.00
2022-08-19T02:22:22.757Z,25.84
2022-08-19T02:27:26.689Z,25.55
2022-08-19T02:32:31.747Z,24.05
2022-08-19T02:37:53.414Z,25.25
2022-08-19T02:42:56.395Z,26.09
2022-08-19T02:47:59.396Z,25.71
2022-08-19T02:53:02.408Z,23.98
2022-08-19T02:58:05.408Z,24.76
2022-08-19T03:03:11.793Z,25.76
2022-08-19T03:08:15.234Z,25.41
2022-08-19T03:13:19.172Z,24.35
2022-08-19T03:18:23.137Z,25.81
2022-08-19T03:23:26.486Z,24.50
2022-08-19T03:28:31.538Z,24.24
2022-08-19T03:33:35.225Z,25.14
2022-08-19T03:38:45.747Z,23.78
2022-08-19T03:43:49.671Z,24.13
2022-08-19T03:48:56.158Z,24.59
2022-08-19T03:54:01.215Z,24.76
2022-08-19T03:59:06.677Z,25.11
2022-08-19T04:04:10.094Z,25.49
2022-08-19T04:09:13.107Z,24.39
2022-08-19T04:14:19.794Z,25.00
2022-08-19T04:19:24.422Z,27.08
2022-08-19T04:24:27.856Z,27.22
2022-08-19T04:29:31.414Z,27.64
2022-08-19T04:34:34.585Z,28.24
2022-08-19T04:39:58.694Z,28.92
2022-08-19T04:45:12.371Z,29.40
2022-08-19T04:50:15.868Z,29.56
2022-08-19T04:55:19.088Z,29.46
2022-08-19T05:00:22.026Z,29.73
2022-08-19T05:05:25.083Z,30.46
2022-08-19T05:10:28.090Z,31.30
2022-08-19T05:15:31.978Z,32.04
2022-08-19T05:20:53.561Z,32.92
2022-08-19T05:25:56.671Z,33.22
2022-08-19T05:30:59.681Z,33.21
2022-08-19T05:36:03.998Z,33.39
2022-08-19T05:41:11.422Z,33.27
2022-08-19T05:46:27.876Z,33.07
2022-08-19T05:51:31.669Z,33.02
2022-08-19T05:56:37.722Z,33.03
2022-08-19T06:01:43.010Z,32.84
2022-08-19T06:06:54.775Z,32.73
2022-08-19T06:12:05.001Z,32.86
2022-08-19T06:17:08.000Z,32.89
2022-08-19T06:22:13.059Z,33.56
2022-08-19T06:27:17.188Z,34.58
2022-08-19T06:32:20.301Z,35.26
2022-08-19T06:37:23.612Z,35.88
2022-08-19T06:42:26.616Z,36.85
2022-08-19T06:47:30.037Z,37.67
2022-08-19T06:52:38.201Z,38.26
2022-08-19T06:57:41.485Z,38.73
2022-08-19T07:02:49.730Z,38.41
2022-08-19T07:08:01.646Z,38.00
2022-08-19T07:13:09.672Z,38.04
2022-08-19T07:18:12.681Z,37.95
2022-08-19T07:23:15.839Z,38.08
2022-08-19T07:28:23.985Z,37.74
2022-08-19T07:33:28.367Z,37.43
2022-08-19T07:38:33.217Z,36.78
2022-08-19T07:43:36.493Z,36.24
2022-08-19T07:48:39.494Z,36.08
2022-08-19T07:53:44.336Z,35.82
2022-08-19T07:58:50.231Z,35.58
2022-08-19T08:04:14.320Z,35.31
2022-08-19T08:09:25.740Z,35.15
2022-08-19T08:14:35.300Z,35.18
2022-08-19T08:19:39.157Z,35.08
2022-08-19T08:24:42.220Z,35.35
2022-08-19T08:29:45.736Z,35.22
2022-08-19T08:34:52.372Z,35.10
2022-08-19T08:39:56.193Z,34.77
2022-08-19T08:45:08.020Z,34.63
2022-08-19T08:50:37.087Z,34.61
2022-08-19T08:55:42.542Z,34.19
2022-08-19T09:00:49.263Z,33.76
2022-08-19T09:06:11.840Z,33.15
2022-08-19T09:11:53.929Z,32.86
2022-08-19T09:16:59.229Z,32.63
2022-08-19T09:22:02.303Z,32.53
2022-08-19T09:27:18.202Z,32.45
2022-08-19T09:32:26.269Z,32.05
2022-08-19T09:37:30.570Z,31.93
2022-08-19T09:42:36.651Z,32.15
2022-08-19T09:47:40.728Z,32.29
2022-08-19T09:52:54.110Z,32.34
2022-08-19T09:58:03.176Z,32.46
2022-08-19T10:03:06.286Z,32.66
2022-08-19T10:08:13.916Z,32.90
2022-08-19T10:13:23.710Z,32.90
2022-08-19T10:18:26.966Z,32.98
2022-08-19T10:23:33.794Z,32.98
2022-08-19T10:28:39.036Z,33.10
2022-08-19T10:33:53.499Z,32.97
2022-08-19T10:39:00.408Z,32.74
2022-08-19T10:44:08.026Z,32.76
2022-08-19T10:49:12.462Z,32.82
2022-08-19T10:54:16.501Z,32.91
2022-08-19T10:59:35.746Z,32.96
2022-08-19T11:04:41.257Z,32.65
2022-08-19T11:09:44.877Z,32.46
2022-08-19T11:14:51.149Z,32.35
2022-08-19T11:19:54.158Z,32.19
2022-08-19T11:24:57.607Z,32.28
2022-08-19T11:30:04.817Z,32.56
2022-08-19T11:35:12.611Z,32.90
2022-08-19T11:40:15.639Z,33.23
2022-08-19T11:45:19.139Z,33.45
2022-08-19T11:50:24.646Z,33.56
2022-08-19T11:55:28.104Z,33.61
2022-08-19T12:00:31.210Z,33.59
2022-08-19T12:05:34.916Z,33.51
2022-08-19T12:10:38.356Z,33.43
2022-08-19T12:15:42.089Z,33.31
2022-08-19T12:20:46.984Z,33.14
2022-08-19T12:25:53.546Z,33.02
2022-08-19T12:30:57.760Z,32.94
2022-08-19T12:36:06.907Z,32.94
2022-08-19T12:41:14.005Z,32.95
2022-08-19T12:46:17.629Z,32.92
2022-08-19T12:51:21.757Z,33.01
2022-08-19T12:56:24.868Z,33.06
2022-08-19T13:01:29.452Z,33.10
2022-08-19T13:06:35.587Z,33.16
2022-08-19T13:11:38.906Z,33.26
2022-08-19T13:16:42.522Z,33.34
2022-08-19T13:21:45.365Z,33.45
2022-08-19T13:26:49.258Z,33.47
2022-08-19T13:32:11.241Z,33.37
2022-08-19T13:37:40.733Z,33.23
2022-08-19T13:42:48.379Z,33.18
2022-08-19T13:47:59.201Z,33.17
2022-08-19T13:53:05.320Z,33.23
2022-08-19T13:58:08.530Z,33.16
2022-08-19T14:03:15.629Z,33.04
2022-08-19T14:08:19.427Z,32.88
2022-08-19T14:13:24.416Z,32.79
2022-08-19T14:18:28.666Z,32.77
2022-08-19T14:23:36.996Z,32.85
2022-08-19T14:28:43.754Z,32.90
2022-08-19T14:33:48.703Z,32.86
2022-08-19T14:38:51.728Z,32.78
2022-08-19T14:43:55.559Z,32.67
2022-08-19T14:49:01.046Z,32.57
2022-08-19T14:54:13.139Z,32.51
2022-08-19T14:59:16.556Z,32.54
2022-08-19T15:04:20.110Z,32.66
2022-08-19T15:09:23.083Z,32.82
2022-08-19T15:14:27.350Z,32.97
2022-08-19T15:19:32.480Z,33.12
2022-08-19T15:24:36.504Z,33.03
2022-08-19T15:29:51.191Z,32.90
2022-08-19T15:34:59.543Z,32.82
2022-08-19T15:40:02.868Z,32.75
2022-08-19T15:45:06.945Z,32.61
2022-08-19T15:50:17.987Z,32.44
2022-08-19T15:55:35.430Z,32.20
2022-08-19T16:00:57.052Z,32.02
2022-08-19T16:06:19.610Z,31.94
2022-08-19T16:11:30.559Z,31.85
2022-08-19T16:16:35.453Z,31.76
2022-08-19T16:21:41.523Z,31.69
2022-08-19T16:26:46.805Z,31.62
2022-08-19T16:31:50.241Z,31.52
2022-08-19T16:36:53.213Z,31.41
2022-08-19T16:41:56.550Z,31.31
2022-08-19T16:47:00.199Z,31.18
2022-08-19T16:52:06.225Z,31.04
2022-08-19T16:57:09.133Z,30.88
2022-08-19T17:02:15.216Z,30.72
2022-08-19T17:07:18.317Z,30.54
2022-08-19T17:12:21.736Z,30.33
2022-08-19T17:17:28.731Z,30.11
2022-08-19T17:22:32.558Z,29.93
2022-08-19T17:27:35.564Z,29.74
2022-08-19T17:32:38.744Z,29.56
2022-08-19T17:37:42.910Z,29.38
2022-08-19T17:42:46.222Z,29.24
2022-08-19T17:47:49.228Z,29.10
2022-08-19T17:52:52.681Z,28.91
2022-08-19T17:57:55.705Z,28.73
2022-08-19T18:03:02.967Z,28.58
2022-08-19T18:08:10.795Z,28.40
2022-08-19T18:13:17.112Z,28.22
2022-08-19T18:18:21.609Z,28.08
2022-08-19T18:23:45.439Z,27.94
2022-08-19T18:28:49.898Z,27.81
2022-08-19T18:33:53.457Z,27.72
2022-08-19T18:39:15.413Z,27.63
2022-08-19T18:44:37.774Z,27.60
2022-08-19T18:49:41.086Z,27.58
2022-08-19T18:54:47.048Z,27.59
2022-08-19T18:59:50.065Z,27.61
2022-08-19T19:04:53.279Z,27.58
2022-08-19T19:09:56.490Z,27.47
2022-08-19T19:15:06.153Z,27.33
2022-08-19T19:20:09.362Z,27.17
2022-08-19T19:25:12.778Z,27.01
2022-08-19T19:30:16.022Z,26.90
2022-08-19T19:35:18.997Z,26.81
2022-08-19T19:40:22.524Z,26.75
2022-08-19T19:45:26.586Z,26.71
2022-08-19T19:50:30.478Z,26.70
2022-08-19T19:55:33.485Z,26.68
2022-08-19T20:00:36.794Z,26.64
2022-08-19T20:05:39.809Z,26.59
2022-08-19T20:10:44.185Z,26.54
2022-08-19T20:15:47.180Z,26.51
2022-08-19T20:20:52.009Z,26.52
2022-08-19T20:25:55.207Z,26.55
2022-08-19T20:30:58.654Z,26.60
2022-08-19T20:36:01.736Z,26.65
2022-08-19T20:41:06.006Z,26.69
2022-08-19T20:46:09.793Z,26.67
2022-08-19T20:51:14.045Z,26.63
2022-08-19T20:56:20.509Z,26.57
2022-08-19T21:01:24.011Z,26.52
2022-08-19T21:06:27.245Z,26.48
2022-08-19T21:11:32.608Z,26.45
2022-08-19T21:16:35.726Z,26.44
2022-08-19T21:21:39.132Z,26.44
2022-08-19T21:26:42.140Z,26.45
2022-08-19T21:31:45.157Z,26.45
2022-08-19T21:36:48.356Z,26.45
2022-08-19T21:41:51.261Z,26.43
2022-08-19T21:46:54.376Z,26.39
2022-08-19T21:51:58.621Z,26.37
2022-08-19T21:57:01.754Z,26.33
2022-08-19T22:02:19.006Z,26.32
2022-08-19T22:07:23.187Z,26.32
2022-08-19T22:12:30.444Z,26.32
2022-08-19T22:17:33.836Z,26.32
2022-08-19T22:22:37.766Z,26.32
2022-08-19T22:27:40.847Z,26.29
2022-08-19T22:32:49.403Z,26.27
2022-08-19T22:38:00.198Z,26.23
2022-08-19T22:43:06.777Z,26.15
2022-08-19T22:48:13.345Z,26.04
2022-08-19T22:53:17.077Z,25.92
2022-08-19T22:58:27.865Z,25.80
2022-08-19T23:03:31.587Z,25.71
2022-08-19T23:08:35.307Z,25.65
2022-08-19T23:13:41.492Z,25.60
2022-08-19T23:18:45.624Z,25.41
2022-08-19T23:23:48.734Z,25.07
2022-08-19T23:29:10.585Z,24.76
2022-08-19T23:34:13.589Z,24.57
2022-08-19T23:39:16.598Z,25.28
2022-08-19T23:44:19.708Z,25.82
2022-08-19T23:49:24.076Z,25.49
2022-08-19T23:54:34.333Z,25.75
2022-08-19T23:59:46.560Z,26.09
